Curuzu Cuatia Airport


Codes: SATU/UZU
Name: Curuzu Cuatia Airport
City: Curuzu Cuatia
Country: Argentina
Elevation: 229 ft.

Photos at Curuzu Cuatia Airport


   Photos courtesy of SpottingLog. You can add your own sightings and photos by signing up for a free trial today.



No photos found.

Weather at Curuzu Cuatia Airport


Time (UTC)DescriptionTempratureWindCloud coverageVisibilityPressureHumidity
26-Jun-2024 00:00Overcast Clouds9°C13 mph, SE100%10000m1021hPa73%
26-Jun-2024 03:00Overcast Clouds9°C11 mph, SE100%10000m1022hPa79%
26-Jun-2024 06:00Overcast Clouds8°C11 mph, S97%10000m1022hPa86%
26-Jun-2024 09:00Few Clouds5°C7 mph, SE18%10000m1021hPa95%
26-Jun-2024 12:00Few Clouds7°C4 mph, S12%10000m1023hPa91%
26-Jun-2024 15:00Clear Sky12°C7 mph, S4%10000m1023hPa70%
26-Jun-2024 18:00Clear Sky13°C4 mph, SW3%10000m1020hPa61%
26-Jun-2024 21:00Clear Sky9°C2 mph, W0%10000m1019hPa77%
27-Jun-2024 00:00Clear Sky8°C7 mph, N0%10000m1020hPa81%
27-Jun-2024 03:00Clear Sky7°C7 mph, N1%10000m1019hPa87%
27-Jun-2024 06:00Clear Sky6°C4 mph, NW1%10000m1018hPa89%
27-Jun-2024 09:00Clear Sky6°C7 mph, NW2%10000m1017hPa89%
27-Jun-2024 12:00Scattered Clouds8°C7 mph, N40%10000m1017hPa86%
27-Jun-2024 15:00Overcast Clouds14°C9 mph, N100%10000m1016hPa63%
27-Jun-2024 18:00Overcast Clouds17°C11 mph, N100%10000m1012hPa59%
27-Jun-2024 21:00Overcast Clouds13°C9 mph, N99%10000m1010hPa77%
28-Jun-2024 00:00Overcast Clouds11°C11 mph, N92%10000m1009hPa79%
28-Jun-2024 03:00Overcast Clouds9°C7 mph, NW100%10000m1009hPa87%
28-Jun-2024 06:00Overcast Clouds9°C7 mph, NW99%10000m1009hPa87%
28-Jun-2024 09:00Overcast Clouds10°C7 mph, W97%10000m1010hPa83%
28-Jun-2024 12:00Overcast Clouds12°C7 mph, W98%10000m1012hPa83%
28-Jun-2024 15:00Overcast Clouds16°C11 mph, S100%10000m1014hPa66%
28-Jun-2024 18:00Overcast Clouds16°C13 mph, S100%10000m1015hPa67%
28-Jun-2024 21:00Overcast Clouds12°C16 mph, S100%10000m1017hPa75%
29-Jun-2024 00:00Overcast Clouds10°C13 mph, S100%10000m1020hPa73%
29-Jun-2024 03:00Overcast Clouds8°C11 mph, S100%10000m1022hPa79%
29-Jun-2024 06:00Overcast Clouds7°C9 mph, S100%10000m1023hPa83%
29-Jun-2024 09:00Overcast Clouds5°C7 mph, S100%10000m1025hPa87%
29-Jun-2024 12:00Overcast Clouds6°C9 mph, S100%10000m1028hPa82%
29-Jun-2024 15:00Overcast Clouds10°C13 mph, S100%10000m1029hPa56%
29-Jun-2024 18:00Overcast Clouds11°C16 mph, S98%10000m1028hPa50%
29-Jun-2024 21:00Clear Sky7°C9 mph, SW4%10000m1028hPa69%
30-Jun-2024 00:00Clear Sky4°C9 mph, S2%10000m1030hPa75%
30-Jun-2024 03:00Clear Sky3°C7 mph, S0%10000m1030hPa78%
30-Jun-2024 06:00Clear Sky2°C7 mph, SW0%10000m1030hPa77%
30-Jun-2024 09:00Clear Sky1°C7 mph, S0%10000m1029hPa78%
30-Jun-2024 12:00Scattered Clouds3°C2 mph, SE50%10000m1031hPa75%
30-Jun-2024 15:00Overcast Clouds8°C4 mph, SE99%10000m1032hPa55%
30-Jun-2024 18:00Broken Clouds10°C4 mph, SE84%10000m1029hPa50%
30-Jun-2024 21:00Broken Clouds6°C4 mph, SE65%10000m1029hPa66%